TAF KBAM
KBAM 280527Z 2806/2906 VRB05KT P6SM FEW150 SCT200=
METAR KBAM
WC KBAM
WS KBAM
WV KBAM